Time;durP1;ratioP1;P1;durP2;ratioP2;P2;SDS_P1;SDS_P2;PMS_P1;PMS_P2;Temp;Humidity;BMP_temperature;BMP_pressure;BME280_temperature;BME280_humidity;BME280_pressure;Samples;Min_cycle;Max_cycle;Signal;HPM_P1;HPM_P2
2021/06/13 00:02:11;;;;;;;1.93;1.80;;;23.80;79.10;;;;;;3589541;40;20415;-63
2021/06/13 00:04:37;;;;;;;2.87;1.80;;;24.00;78.30;;;;;;3598463;39;20432;-64
2021/06/13 00:07:03;;;;;;;2.17;1.98;;;24.10;77.80;;;;;;3603613;39;20515;-63
2021/06/13 00:09:29;;;;;;;2.85;1.70;;;24.10;77.40;;;;;;3601352;39;20388;-63
2021/06/13 00:11:55;;;;;;;4.07;1.92;;;24.20;77.10;;;;;;3596300;39;20376;-64
2021/06/13 00:14:24;;;;;;;3.95;2.00;;;24.20;76.70;;;;;;3593124;40;20631;-64
2021/06/13 00:16:51;;;;;;;3.70;1.80;;;24.20;76.90;;;;;;3586480;40;20403;-63
2021/06/13 00:19:19;;;;;;;2.60;2.00;;;24.30;76.10;;;;;;3593202;40;20652;-64
2021/06/13 00:21:46;;;;;;;2.43;2.10;;;24.30;76.30;;;;;;3592581;39;20453;-64
2021/06/13 00:24:12;;;;;;;4.78;2.10;;;24.30;75.90;;;;;;3590286;39;20381;-63
2021/06/13 00:26:40;;;;;;;2.90;2.00;;;24.30;75.50;;;;;;3588287;40;20373;-63
2021/06/13 00:29:06;;;;;;;2.60;1.98;;;24.30;75.70;;;;;;3596185;39;20453;-64
2021/06/13 00:31:33;;;;;;;3.10;1.90;;;24.30;75.40;;;;;;3582127;40;20400;-63
2021/06/13 00:33:59;;;;;;;2.30;1.73;;;24.30;75.40;;;;;;3597287;39;20391;-63
2021/06/13 00:36:25;;;;;;;2.60;2.40;;;24.30;75.50;;;;;;3597663;39;20373;-64
2021/06/13 00:38:51;;;;;;;2.03;1.83;;;24.30;74.70;;;;;;3597300;39;20377;-64
2021/06/13 00:41:18;;;;;;;5.65;2.00;;;24.30;74.50;;;;;;3590189;39;20432;-64
2021/06/13 00:43:44;;;;;;;4.90;2.00;;;24.30;74.20;;;;;;3597506;40;20638;-64
2021/06/13 00:46:10;;;;;;;3.33;1.98;;;24.30;74.80;;;;;;3581055;40;21306;-64
2021/06/13 00:48:38;;;;;;;2.63;1.90;;;24.30;74.60;;;;;;3597380;39;20753;-64
2021/06/13 00:51:04;;;;;;;3.15;1.90;;;24.20;75.10;;;;;;3590352;39;20420;-64
2021/06/13 00:53:30;;;;;;;2.05;1.67;;;24.10;74.90;;;;;;3597595;39;20387;-64
2021/06/13 00:55:57;;;;;;;3.13;1.83;;;24.10;74.70;;;;;;3587977;40;20396;-64
2021/06/13 00:58:23;;;;;;;2.72;1.75;;;24.20;74.20;;;;;;3594746;39;20407;-64
2021/06/13 01:00:49;;;;;;;3.17;2.20;;;24.10;74.80;;;;;;3587580;39;20409;-64
2021/06/13 01:05:44;;;;;;;2.38;2.00;;;24.10;74.50;;;;;;3574493;40;20710;-69
2021/06/13 01:08:21;;;;;;;3.92;2.00;;;24.10;74.10;;;;;;3573850;40;20485;-69
2021/06/13 01:10:58;;;;;;;2.50;1.88;;;24.20;73.70;;;;;;3540335;40;20437;-70
2021/06/13 01:13:30;;;;;;;4.57;1.88;;;24.10;74.30;;;;;;3554190;40;20407;-69
2021/06/13 01:16:04;;;;;;;2.53;2.00;;;24.00;74.20;;;;;;3546022;40;20385;-70
2021/06/13 01:18:36;;;;;;;2.22;2.03;;;24.00;74.70;;;;;;3545828;40;20448;-70
2021/06/13 01:21:10;;;;;;;3.17;2.20;;;24.00;74.40;;;;;;3545746;40;20823;-70
2021/06/13 01:23:50;;;;;;;3.90;2.00;;;23.90;74.20;;;;;;3552558;40;20489;-70
2021/06/13 01:27:01;;;;;;;3.90;2.30;;;24.00;74.20;;;;;;3544646;40;20382;-70
2021/06/13 01:29:29;;;;;;;2.78;1.98;;;23.80;74.60;;;;;;3540117;40;20773;-70
2021/06/13 01:31:58;;;;;;;4.72;2.20;;;23.80;74.40;;;;;;3537675;40;20424;-70
2021/06/13 01:34:31;;;;;;;2.23;2.03;;;23.80;74.40;;;;;;3551983;40;20393;-71
2021/06/13 01:37:00;;;;;;;3.13;2.13;;;23.80;74.80;;;;;;3545692;40;20385;-70
2021/06/13 01:39:29;;;;;;;3.05;2.08;;;24.00;73.40;;;;;;3552570;40;20397;-70
2021/06/13 01:42:00;;;;;;;2.67;2.10;;;23.90;73.70;;;;;;3546006;40;20810;-70
2021/06/13 01:44:28;;;;;;;2.92;2.00;;;23.90;73.70;;;;;;3547201;40;20831;-70
2021/06/13 01:46:56;;;;;;;2.13;1.92;;;24.00;73.50;;;;;;3550103;40;20390;-70
2021/06/13 01:49:23;;;;;;;2.33;1.80;;;23.80;73.70;;;;;;3568336;40;20644;-70
2021/06/13 01:51:49;;;;;;;2.00;1.83;;;23.80;74.20;;;;;;3572209;40;20373;-70
2021/06/13 01:54:17;;;;;;;1.87;1.63;;;23.90;73.70;;;;;;3566806;40;20414;-70
2021/06/13 01:56:49;;;;;;;3.00;2.10;;;23.80;73.80;;;;;;3566995;40;20369;-70
2021/06/13 01:59:16;;;;;;;2.20;1.80;;;23.70;74.10;;;;;;3560158;40;20543;-70
2021/06/13 02:01:44;;;;;;;2.17;1.77;;;23.70;73.90;;;;;;3567433;40;20750;-70
2021/06/13 02:04:11;;;;;;;2.63;2.00;;;23.80;73.50;;;;;;3556844;40;20466;-70
2021/06/13 02:06:42;;;;;;;2.40;2.20;;;23.70;74.10;;;;;;3564801;40;20650;-69
2021/06/13 02:09:09;;;;;;;3.00;2.10;;;23.80;73.50;;;;;;3560989;40;20756;-70
2021/06/13 02:11:39;;;;;;;3.63;2.05;;;23.70;74.20;;;;;;3555250;40;20415;-69
2021/06/13 02:14:05;;;;;;;2.28;1.90;;;23.70;73.60;;;;;;3566596;40;20850;-70
2021/06/13 02:16:32;;;;;;;4.22;1.92;;;23.80;73.40;;;;;;3574007;40;20380;-69
2021/06/13 02:19:01;;;;;;;3.13;2.10;;;23.80;73.30;;;;;;3562782;40;20453;-70
2021/06/13 02:21:28;;;;;;;2.57;2.20;;;23.70;73.60;;;;;;3562844;40;20737;-72
2021/06/13 02:23:55;;;;;;;2.60;2.08;;;23.70;73.80;;;;;;3566954;40;20459;-70
2021/06/13 02:26:23;;;;;;;2.28;2.08;;;23.70;73.10;;;;;;3566735;40;20381;-69
2021/06/13 02:28:52;;;;;;;3.50;1.80;;;23.70;73.50;;;;;;3566492;40;20826;-70
2021/06/13 02:31:19;;;;;;;3.40;1.90;;;23.80;73.20;;;;;;3557414;40;20761;-70
2021/06/13 02:33:46;;;;;;;2.27;2.07;;;23.70;73.70;;;;;;3566660;40;20666;-70
2021/06/13 02:36:14;;;;;;;4.75;2.10;;;23.60;73.80;;;;;;3566645;40;20382;-70
2021/06/13 02:38:40;;;;;;;3.00;2.10;;;23.60;73.80;;;;;;3566693;40;20370;-70
2021/06/13 02:41:06;;;;;;;2.20;2.00;;;23.70;73.50;;;;;;3557331;40;20540;-70
2021/06/13 02:43:32;;;;;;;2.53;1.92;;;23.60;73.50;;;;;;3560893;40;20386;-69
2021/06/13 02:45:58;;;;;;;4.05;2.05;;;23.70;74.00;;;;;;3568317;40;20387;-70
2021/06/13 02:48:24;;;;;;;2.90;2.05;;;23.70;73.20;;;;;;3575861;40;20430;-69
2021/06/13 02:50:52;;;;;;;2.60;1.80;;;23.80;73.20;;;;;;3561253;40;20397;-70
2021/06/13 02:53:24;;;;;;;2.55;2.35;;;23.70;73.60;;;;;;3565705;40;20790;-70
2021/06/13 02:55:54;;;;;;;2.70;2.20;;;23.60;73.20;;;;;;3566740;40;20372;-70
2021/06/13 02:58:30;;;;;;;2.23;2.00;;;23.40;74.70;;;;;;3569866;40;20400;-70
2021/06/13 03:00:57;;;;;;;2.70;2.20;;;23.30;74.40;;;;;;3561573;40;20378;-70
2021/06/13 03:03:26;;;;;;;2.78;2.05;;;;;;;;;;3570654;40;20384;-70
2021/06/13 03:05:53;;;;;;;3.17;2.00;;;;;;;;;;3558409;40;20485;-69
2021/06/13 03:08:21;;;;;;;2.17;1.95;;;;;;;;;;3566876;40;20370;-71
2021/06/13 03:10:48;;;;;;;2.42;1.88;;;23.10;75.20;;;;;;3566494;40;20762;-69
2021/06/13 03:13:15;;;;;;;2.35;1.73;;;23.00;75.30;;;;;;3561227;40;20443;-70
2021/06/13 03:15:42;;;;;;;3.67;1.95;;;22.90;75.30;;;;;;3571761;40;20425;-70
2021/06/13 03:18:09;;;;;;;3.23;2.57;;;22.90;74.60;;;;;;3566471;40;20377;-70
2021/06/13 03:20:36;;;;;;;2.07;1.90;;;23.00;75.10;;;;;;3569971;40;20763;-71
2021/06/13 03:23:03;;;;;;;2.47;2.00;;;22.90;75.50;;;;;;3565259;40;20402;-70
2021/06/13 03:25:30;;;;;;;2.20;1.83;;;23.00;75.00;;;;;;3564479;40;20445;-70
2021/06/13 03:27:58;;;;;;;4.07;1.95;;;22.90;75.50;;;;;;3566357;40;20382;-70
2021/06/13 03:30:24;;;;;;;2.60;1.90;;;22.90;75.10;;;;;;3563247;40;20713;-71
2021/06/13 03:32:50;;;;;;;4.10;2.05;;;22.80;75.20;;;;;;3561793;40;20378;-70
2021/06/13 03:35:18;;;;;;;3.05;2.17;;;22.90;74.50;;;;;;3557212;40;20374;-70
2021/06/13 03:37:44;;;;;;;3.30;2.20;;;22.90;74.90;;;;;;3555946;40;20404;-71
2021/06/13 03:40:11;;;;;;;2.10;1.83;;;22.90;74.90;;;;;;3564720;40;20487;-71
2021/06/13 03:42:40;;;;;;;2.22;1.98;;;22.90;75.30;;;;;;3561804;40;20760;-70
2021/06/13 03:45:07;;;;;;;3.80;1.95;;;22.90;74.60;;;;;;3564768;40;20667;-70
2021/06/13 03:47:33;;;;;;;2.30;2.10;;;22.90;74.10;;;;;;3556583;40;20436;-69
2021/06/13 03:50:00;;;;;;;2.00;1.75;;;23.00;74.50;;;;;;3566184;40;20845;-69
2021/06/13 03:52:28;;;;;;;2.47;2.00;;;23.00;74.60;;;;;;3566242;40;20374;-70
2021/06/13 03:54:54;;;;;;;2.03;1.92;;;23.00;74.00;;;;;;3566242;40;20393;-69
2021/06/13 03:57:22;;;;;;;2.78;1.90;;;23.00;74.30;;;;;;3566014;40;20472;-69
2021/06/13 03:59:52;;;;;;;2.50;1.77;;;23.00;74.90;;;;;;3566914;40;20413;-69
2021/06/13 04:02:20;;;;;;;4.93;1.90;;;22.90;74.60;;;;;;3568025;40;20417;-69
2021/06/13 04:04:49;;;;;;;2.60;1.95;;;22.90;74.60;;;;;;3564507;40;20419;-69
2021/06/13 04:07:17;;;;;;;2.33;1.88;;;22.90;74.60;;;;;;3559826;40;20518;-69
2021/06/13 04:09:45;;;;;;;2.30;2.10;;;22.90;74.10;;;;;;3566478;40;20373;-69
2021/06/13 04:12:14;;;;;;;2.20;2.00;;;22.90;73.90;;;;;;3567764;40;20749;-70
2021/06/13 04:14:41;;;;;;;3.13;2.00;;;23.00;73.80;;;;;;3567466;40;20374;-69
2021/06/13 04:17:10;;;;;;;2.88;2.00;;;23.20;73.10;;;;;;3566838;40;20398;-69
2021/06/13 04:19:36;;;;;;;3.33;2.00;;;23.30;72.80;;;;;;3567642;40;20373;-69
2021/06/13 04:22:02;;;;;;;2.43;2.00;;;23.30;72.90;;;;;;3567510;40;20377;-69
2021/06/13 04:24:30;;;;;;;2.50;2.30;;;23.30;73.30;;;;;;3567565;40;20471;-69
2021/06/13 04:26:57;;;;;;;3.05;2.50;;;23.30;73.30;;;;;;3560599;40;20631;-69
2021/06/13 04:29:23;;;;;;;2.83;2.53;;;23.20;73.80;;;;;;3567482;40;20392;-69
2021/06/13 04:31:49;;;;;;;2.90;2.10;;;23.20;73.70;;;;;;3567191;40;20417;-69
2021/06/13 04:34:16;;;;;;;4.32;2.33;;;23.20;73.90;;;;;;3565980;40;20648;-69
2021/06/13 04:36:42;;;;;;;4.18;2.42;;;23.10;73.60;;;;;;3567144;40;20484;-70
2021/06/13 04:39:08;;;;;;;3.65;2.20;;;23.20;73.50;;;;;;3570546;40;20416;-70
2021/06/13 04:41:35;;;;;;;3.35;1.92;;;23.10;73.70;;;;;;3553331;40;20376;-69
2021/06/13 04:44:03;;;;;;;5.80;2.70;;;23.10;74.20;;;;;;3561079;40;20431;-70
2021/06/13 04:46:31;;;;;;;3.00;2.05;;;23.10;74.30;;;;;;3567047;40;20404;-70
2021/06/13 04:48:57;;;;;;;3.47;2.05;;;23.10;74.20;;;;;;3566054;40;20381;-70
2021/06/13 04:51:26;;;;;;;4.90;2.20;;;23.10;74.20;;;;;;3558102;40;20413;-69
2021/06/13 04:54:20;;;;;;;3.70;1.90;;;23.20;73.80;;;;;;3545552;40;20713;-68
2021/06/13 04:56:54;;;;;;;4.13;2.20;;;23.30;74.30;;;;;;3545773;40;20436;-69
2021/06/13 04:59:20;;;;;;;2.70;2.15;;;23.30;73.60;;;;;;3545713;40;20397;-68
2021/06/13 05:01:47;;;;;;;3.10;2.00;;;23.40;73.20;;;;;;3545831;40;20392;-69
2021/06/13 05:04:13;;;;;;;4.20;1.90;;;23.30;73.40;;;;;;3544822;40;20413;-69
2021/06/13 05:06:43;;;;;;;3.30;2.33;;;23.30;73.00;;;;;;3545390;40;20838;-68
2021/06/13 05:09:09;;;;;;;2.10;1.90;;;23.50;72.70;;;;;;3544805;40;20723;-69
2021/06/13 05:11:35;;;;;;;3.47;2.07;;;23.50;72.70;;;;;;3545633;40;20384;-68
2021/06/13 05:14:01;;;;;;;3.90;2.10;;;23.50;73.10;;;;;;3542555;40;20745;-68
2021/06/13 05:16:27;;;;;;;5.05;2.20;;;23.60;72.50;;;;;;3545480;40;20385;-68
2021/06/13 05:18:53;;;;;;;2.73;2.27;;;23.60;72.80;;;;;;3542037;40;20401;-68
2021/06/13 05:21:19;;;;;;;3.38;2.08;;;23.60;72.50;;;;;;3542219;40;20435;-69
2021/06/13 05:23:47;;;;;;;2.30;2.10;;;;;;;;;;3545329;40;20453;-69
2021/06/13 05:26:12;;;;;;;5.00;2.22;;;23.60;72.10;;;;;;3563056;40;20386;-68
2021/06/13 05:28:39;;;;;;;7.33;2.13;;;23.60;72.40;;;;;;3566916;40;20797;-69
2021/06/13 05:31:05;;;;;;;3.13;2.10;;;23.70;72.50;;;;;;3567067;40;20382;-69
2021/06/13 05:33:32;;;;;;;4.90;2.30;;;;;;;;;;3557752;40;20406;-69
2021/06/13 05:36:01;;;;;;;3.57;2.37;;;23.70;72.60;;;;;;3567089;40;20381;-68
2021/06/13 05:38:28;;;;;;;3.15;2.25;;;23.80;72.80;;;;;;3556380;40;20660;-68
2021/06/13 05:40:55;;;;;;;5.20;1.92;;;23.80;73.20;;;;;;3557749;40;20424;-68
2021/06/13 05:43:21;;;;;;;2.97;2.33;;;23.70;73.10;;;;;;3566252;40;20801;-69
2021/06/13 05:45:47;;;;;;;2.53;1.90;;;23.70;73.70;;;;;;3566891;40;20378;-68
2021/06/13 05:48:13;;;;;;;4.20;1.95;;;23.70;73.60;;;;;;3565790;40;20483;-69
2021/06/13 05:50:40;;;;;;;2.08;1.88;;;23.70;73.00;;;;;;3557517;40;20413;-69
2021/06/13 05:53:07;;;;;;;2.37;1.70;;;23.80;72.90;;;;;;3560768;40;20399;-69
2021/06/13 05:55:33;;;;;;;2.10;1.90;;;23.80;74.00;;;;;;3565920;40;20374;-69
2021/06/13 05:58:01;;;;;;;2.45;1.95;;;23.90;72.20;;;;;;3567040;40;20390;-69
2021/06/13 06:00:29;;;;;;;2.55;1.63;;;24.00;72.20;;;;;;3566861;40;20662;-70
2021/06/13 06:02:55;;;;;;;1.87;1.77;;;24.10;72.40;;;;;;3565854;40;20410;-69
2021/06/13 06:05:22;;;;;;;2.40;1.80;;;24.10;72.60;;;;;;3566121;40;20523;-69
2021/06/13 06:07:49;;;;;;;2.55;1.90;;;24.20;71.80;;;;;;3553921;40;20442;-69
2021/06/13 06:10:16;;;;;;;2.50;1.63;;;24.20;71.70;;;;;;3547254;40;20472;-68
2021/06/13 06:12:43;;;;;;;3.67;1.90;;;24.30;71.90;;;;;;3540778;40;20775;-68
2021/06/13 06:15:14;;;;;;;2.08;1.83;;;24.40;71.20;;;;;;3546682;40;20405;-69
2021/06/13 06:17:40;;;;;;;2.22;1.90;;;24.40;71.40;;;;;;3547215;40;20777;-69
2021/06/13 06:20:07;;;;;;;2.10;1.80;;;24.50;71.10;;;;;;3546801;40;20397;-69
2021/06/13 06:22:33;;;;;;;2.65;1.98;;;24.60;70.80;;;;;;3546980;40;20392;-69
2021/06/13 06:24:59;;;;;;;3.00;1.95;;;24.60;71.40;;;;;;3546808;40;20420;-68
2021/06/13 06:27:25;;;;;;;2.03;1.80;;;24.60;71.10;;;;;;3547100;40;20393;-70
2021/06/13 06:29:51;;;;;;;2.33;1.87;;;24.70;70.60;;;;;;3537823;40;20654;-69
2021/06/13 06:32:18;;;;;;;2.93;2.07;;;24.70;70.30;;;;;;3546847;40;20384;-69
2021/06/13 06:34:45;;;;;;;2.30;2.03;;;24.80;70.70;;;;;;3547021;40;20482;-69
2021/06/13 06:37:11;;;;;;;3.63;2.28;;;24.80;70.00;;;;;;3544202;40;20446;-69
2021/06/13 06:39:37;;;;;;;1.90;1.80;;;24.90;70.00;;;;;;3543407;40;20389;-69
2021/06/13 06:42:03;;;;;;;2.90;1.87;;;25.00;70.30;;;;;;3552314;40;20392;-68
2021/06/13 06:44:29;;;;;;;2.10;2.00;;;25.10;69.30;;;;;;3546753;40;20381;-69
2021/06/13 06:47:01;;;;;;;1.80;1.70;;;25.20;69.50;;;;;;3545367;40;20486;-70
2021/06/13 06:49:29;;;;;;;1.70;1.60;;;25.20;68.90;;;;;;3545453;40;20445;-68
2021/06/13 06:51:55;;;;;;;1.80;1.40;;;25.30;68.60;;;;;;3545828;40;20436;-69
2021/06/13 06:54:21;;;;;;;2.20;1.70;;;25.30;69.30;;;;;;3545408;40;20392;-68
2021/06/13 06:56:47;;;;;;;1.70;1.60;;;25.30;69.00;;;;;;3541930;40;20475;-69
2021/06/13 06:59:13;;;;;;;2.25;1.90;;;25.50;69.10;;;;;;3546927;40;20435;-69
2021/06/13 07:01:39;;;;;;;2.40;1.77;;;25.60;68.60;;;;;;3546845;40;20385;-69
2021/06/13 07:04:05;;;;;;;2.63;2.10;;;25.60;69.80;;;;;;3546726;40;20397;-69
2021/06/13 07:06:33;;;;;;;1.83;1.70;;;25.50;69.80;;;;;;3537562;40;20417;-69
2021/06/13 07:08:59;;;;;;;2.60;1.67;;;25.60;69.50;;;;;;3557777;40;20432;-71
2021/06/13 07:11:25;;;;;;;2.05;1.85;;;25.80;69.10;;;;;;3550197;40;20405;-70
2021/06/13 07:13:51;;;;;;;2.70;1.87;;;25.80;68.30;;;;;;3562656;40;20465;-70
2021/06/13 07:16:17;;;;;;;2.87;1.97;;;25.90;69.90;;;;;;3556413;40;20648;-70
2021/06/13 07:18:43;;;;;;;2.20;1.83;;;25.90;68.70;;;;;;3563329;40;20371;-70
2021/06/13 07:21:10;;;;;;;2.53;1.80;;;26.00;68.60;;;;;;3555585;40;20490;-70
2021/06/13 07:23:37;;;;;;;2.65;1.63;;;26.10;68.60;;;;;;3556437;40;20392;-70
2021/06/13 07:26:03;;;;;;;2.53;1.85;;;26.20;68.10;;;;;;3556615;40;20383;-70
2021/06/13 07:28:32;;;;;;;2.42;1.98;;;26.20;68.90;;;;;;3546174;40;20900;-71
2021/06/13 07:30:58;;;;;;;2.63;2.00;;;26.30;68.90;;;;;;3542832;40;20408;-70
2021/06/13 07:33:25;;;;;;;1.80;1.50;;;26.40;68.30;;;;;;3546460;40;20530;-70
2021/06/13 07:35:51;;;;;;;2.17;1.90;;;26.50;67.80;;;;;;3547321;40;20415;-70
2021/06/13 07:38:17;;;;;;;2.35;1.85;;;26.60;67.60;;;;;;3556526;40;20364;-70
2021/06/13 07:40:44;;;;;;;2.70;2.08;;;26.60;67.40;;;;;;3558964;40;20393;-70
2021/06/13 07:43:10;;;;;;;1.70;1.60;;;26.80;67.10;;;;;;3564826;40;20388;-71
2021/06/13 07:45:37;;;;;;;2.25;1.80;;;26.90;67.40;;;;;;3556068;40;20407;-70
2021/06/13 07:48:05;;;;;;;3.45;1.98;;;26.90;67.80;;;;;;3555389;40;20407;-70
2021/06/13 07:50:31;;;;;;;2.97;1.60;;;27.10;67.50;;;;;;3562967;40;20415;-70
2021/06/13 07:52:57;;;;;;;2.40;1.70;;;27.30;66.10;;;;;;3556404;40;20461;-71
2021/06/13 07:55:23;;;;;;;3.67;2.00;;;27.40;65.70;;;;;;3545638;40;20426;-70
2021/06/13 07:57:51;;;;;;;1.73;1.63;;;27.40;67.20;;;;;;3556228;40;20383;-72
2021/06/13 08:00:19;;;;;;;2.00;1.55;;;27.60;68.30;;;;;;3550503;40;20444;-70
2021/06/13 08:02:46;;;;;;;1.80;1.43;;;27.60;68.80;;;;;;3554966;40;20376;-71
2021/06/13 08:05:30;;;;;;;2.28;1.67;;;27.80;67.20;;;;;;3559992;40;20406;-71
2021/06/13 08:07:58;;;;;;;2.13;1.83;;;27.90;68.50;;;;;;3555517;40;20435;-70
2021/06/13 08:10:25;;;;;;;1.70;1.60;;;28.00;66.00;;;;;;3544922;40;20381;-71
2021/06/13 08:12:52;;;;;;;1.60;1.50;;;28.40;64.10;;;;;;3552053;40;20376;-70
2021/06/13 08:15:19;;;;;;;2.10;1.90;;;28.50;65.50;;;;;;3544906;40;20460;-70
2021/06/13 08:17:46;;;;;;;1.90;1.70;;;28.50;64.30;;;;;;3546219;40;20806;-71
2021/06/13 08:20:13;;;;;;;1.50;1.40;;;28.60;66.50;;;;;;3545087;40;20877;-71
2021/06/13 08:22:39;;;;;;;2.88;1.50;;;28.70;65.70;;;;;;3544208;40;20646;-70
2021/06/13 08:27:36;;;;;;;1.88;1.77;;;;;;;;;;3581253;40;20526;-67
2021/06/13 08:30:05;;;;;;;2.67;1.53;;;29.10;64.30;;;;;;3585907;40;20389;-68
2021/06/13 08:32:32;;;;;;;2.03;1.63;;;;;;;;;;3579186;40;20382;-72
2021/06/13 08:34:58;;;;;;;1.75;1.63;;;29.40;65.30;;;;;;3583400;40;20412;-72
2021/06/13 08:37:24;;;;;;;1.90;1.57;;;29.40;65.20;;;;;;3585803;40;20406;-72
2021/06/13 08:39:51;;;;;;;1.80;1.70;;;29.50;66.90;;;;;;3590309;40;20420;-72
2021/06/13 08:42:17;;;;;;;1.88;1.60;;;;;;;;;;3585824;40;20387;-71
2021/06/13 08:44:43;;;;;;;3.53;1.70;;;29.80;91.10;;;;;;3587694;40;20396;-71
2021/06/13 08:47:16;;;;;;;2.10;1.63;;;29.90;91.70;;;;;;3586508;40;20408;-72
2021/06/13 08:49:42;;;;;;;2.17;1.83;;;29.90;62.70;;;;;;3592708;40;20737;-72
2021/06/13 08:52:08;;;;;;;1.42;1.33;;;30.00;64.90;;;;;;3589099;40;20869;-72
2021/06/13 08:54:34;;;;;;;2.30;1.83;;;30.10;63.80;;;;;;3587173;40;20695;-72
2021/06/13 08:57:00;;;;;;;1.92;1.75;;;30.30;61.50;;;;;;3587739;40;20826;-72
2021/06/13 08:59:26;;;;;;;2.37;1.67;;;30.20;63.00;;;;;;3587615;40;20398;-72
2021/06/13 09:01:52;;;;;;;2.20;2.00;;;;;;;;;;3586610;40;20706;-72
2021/06/13 09:04:19;;;;;;;1.98;1.67;;;;;;;;;;3587867;40;20449;-73
2021/06/13 09:06:45;;;;;;;1.80;1.70;;;30.30;63.00;;;;;;3591700;40;20390;-72
2021/06/13 09:09:19;;;;;;;1.60;1.40;;;30.50;62.80;;;;;;3592157;40;20374;-71
2021/06/13 09:11:57;;;;;;;1.90;1.45;;;30.60;63.30;;;;;;3591696;40;20416;-71
2021/06/13 09:14:23;;;;;;;1.88;1.77;;;30.80;62.60;;;;;;3581355;40;20588;-72
2021/06/13 09:16:49;;;;;;;1.77;1.67;;;30.80;63.10;;;;;;3593470;40;20377;-72
2021/06/13 09:19:15;;;;;;;2.17;1.98;;;30.90;64.10;;;;;;3587086;40;20402;-72
2021/06/13 09:21:42;;;;;;;1.80;1.70;;;31.10;63.90;;;;;;3592885;39;20652;-72
2021/06/13 09:24:20;;;;;;;2.67;2.47;;;31.20;64.90;;;;;;3584930;40;20381;-72
2021/06/13 09:26:46;;;;;;;2.15;1.95;;;31.20;67.40;;;;;;3593178;39;20424;-74
2021/06/13 09:29:12;;;;;;;2.22;1.88;;;30.90;66.90;;;;;;3583400;40;20431;-72
2021/06/13 09:31:38;;;;;;;2.30;2.10;;;30.90;66.10;;;;;;3583161;40;20450;-73
2021/06/13 09:34:05;;;;;;;2.37;2.17;;;30.80;67.80;;;;;;3584488;40;20373;-72
2021/06/13 09:36:32;;;;;;;1.90;1.80;;;30.80;68.00;;;;;;3575870;40;20398;-72
2021/06/13 09:39:04;;;;;;;2.25;2.05;;;31.10;66.20;;;;;;3586769;40;20375;-73
2021/06/13 09:41:31;;;;;;;2.10;1.97;;;30.90;68.20;;;;;;3586736;40;20394;-73
2021/06/13 09:44:01;;;;;;;2.95;1.90;;;31.20;64.30;;;;;;3576111;40;20453;-73
2021/06/13 09:46:29;;;;;;;1.88;1.75;;;31.20;66.90;;;;;;3583533;40;20377;-73
2021/06/13 09:48:59;;;;;;;2.10;1.88;;;31.20;65.50;;;;;;3583364;40;20379;-72
2021/06/13 09:51:32;;;;;;;2.60;2.27;;;31.40;67.20;;;;;;3586865;40;20367;-73
2021/06/13 09:54:02;;;;;;;3.08;2.10;;;;;;;;;;3585739;40;20663;-73
2021/06/13 09:56:29;;;;;;;2.70;2.20;;;;;;;;;;3586981;40;20377;-72
2021/06/13 09:59:02;;;;;;;3.08;1.85;;;;;;;;;;3585791;40;20385;-72
2021/06/13 10:01:30;;;;;;;2.40;2.20;;;;;;;;;;3586115;40;20842;-72
2021/06/13 10:03:56;;;;;;;2.42;2.00;;;31.50;67.00;;;;;;3586256;40;20394;-72
2021/06/13 10:06:23;;;;;;;2.63;2.43;;;32.00;66.30;;;;;;3585302;40;20370;-72
2021/06/13 10:08:50;;;;;;;3.03;2.72;;;31.90;67.90;;;;;;3583828;40;20446;-72
2021/06/13 10:11:19;;;;;;;2.35;2.15;;;31.90;68.80;;;;;;3583200;40;20446;-72
2021/06/13 10:13:47;;;;;;;3.00;2.38;;;32.20;66.90;;;;;;3583973;40;20400;-73
2021/06/13 10:16:30;;;;;;;2.83;2.05;;;32.20;66.30;;;;;;3583320;40;20378;-72
2021/06/13 10:18:59;;;;;;;2.25;1.83;;;31.80;66.30;;;;;;3585193;40;20362;-72
2021/06/13 10:21:28;;;;;;;1.90;1.80;;;32.00;66.20;;;;;;3583812;40;20410;-72
2021/06/13 10:23:55;;;;;;;2.00;1.70;;;;;;;;;;3587108;40;20756;-72
2021/06/13 10:26:23;;;;;;;1.90;1.80;;;;;;;;;;3585507;40;20402;-72
2021/06/13 10:28:49;;;;;;;2.28;1.70;;;32.20;63.80;;;;;;3588093;40;20446;-72
2021/06/13 10:31:15;;;;;;;2.10;1.70;;;;;;;;;;3586162;40;20377;-72
2021/06/13 10:36:11;;;;;;;2.15;1.70;;;;;;;;;;3594723;39;20408;-73
2021/06/13 10:38:37;;;;;;;2.30;1.60;;;;;;;;;;3595339;40;20713;-72
2021/06/13 10:41:04;;;;;;;2.33;1.90;;;;;;;;;;3593928;40;20420;-72
2021/06/13 10:43:32;;;;;;;2.38;1.92;;;;;;;;;;3586100;40;20427;-72
2021/06/13 10:46:11;;;;;;;2.13;1.85;;;32.50;65.30;;;;;;3594801;40;20714;-72
2021/06/13 10:48:44;;;;;;;3.75;2.00;;;32.70;58.60;;;;;;3586282;40;20673;-71
2021/06/13 10:51:31;;;;;;;2.55;1.88;;;;;;;;;;3594866;40;20393;-72
2021/06/13 10:54:22;;;;;;;3.67;3.08;;;;;;;;;;3593654;40;20463;-72
2021/06/13 10:56:48;;;;;;;2.58;1.73;;;;;;;;;;3564181;40;20401;-73
2021/06/13 10:59:18;;;;;;;1.83;1.73;;;32.90;59.00;;;;;;3564468;40;20454;-72
2021/06/13 11:02:03;;;;;;;2.00;1.65;;;32.90;58.20;;;;;;3564245;40;20435;-72
2021/06/13 11:04:46;;;;;;;2.10;1.58;;;;;;;;;;3566060;40;20755;-72
2021/06/13 11:07:36;;;;;;;1.65;1.55;;;33.10;58.20;;;;;;3575129;40;20865;-72
2021/06/13 11:10:15;;;;;;;2.45;1.70;;;33.30;58.30;;;;;;3580848;39;20384;-72
2021/06/13 11:12:46;;;;;;;3.17;1.95;;;33.10;58.60;;;;;;3594242;39;20373;-72
2021/06/13 11:15:16;;;;;;;2.10;1.80;;;33.00;56.90;;;;;;3587032;40;20392;-72
2021/06/13 11:17:54;;;;;;;4.50;1.90;;;33.00;59.30;;;;;;3597059;40;20372;-72
2021/06/13 11:20:54;;;;;;;2.00;1.83;;;33.10;59.20;;;;;;3589380;39;20775;-72
2021/06/13 11:23:46;;;;;;;2.10;1.88;;;33.10;58.30;;;;;;3593910;39;20380;-73
2021/06/13 11:26:45;;;;;;;1.90;1.67;;;33.30;59.20;;;;;;3576011;40;20400;-72
2021/06/13 11:29:13;;;;;;;2.20;2.00;;;33.50;58.60;;;;;;3590596;40;20391;-73
2021/06/13 11:31:50;;;;;;;2.22;2.00;;;33.40;57.10;;;;;;3593401;40;20387;-73
2021/06/13 11:34:17;;;;;;;2.20;1.88;;;33.40;58.60;;;;;;3592718;39;20485;-73
2021/06/13 11:36:43;;;;;;;2.10;1.90;;;33.50;61.10;;;;;;3599325;39;20411;-72
2021/06/13 11:39:27;;;;;;;2.90;2.22;;;32.80;55.30;;;;;;3603129;39;20539;-73
2021/06/13 11:42:08;;;;;;;2.33;1.90;;;32.60;59.40;;;;;;3594055;39;20413;-73
2021/06/13 11:44:40;;;;;;;3.70;2.47;;;32.90;56.60;;;;;;3601171;39;20446;-72
2021/06/13 11:47:33;;;;;;;2.90;2.65;;;32.90;58.10;;;;;;3604016;39;20363;-72
2021/06/13 11:50:00;;;;;;;2.50;2.30;;;33.20;59.50;;;;;;3564889;39;20439;-72
2021/06/13 11:52:56;;;;;;;2.50;2.33;;;33.30;59.00;;;;;;3568044;39;20709;-72
2021/06/13 11:55:52;;;;;;;3.60;2.67;;;33.10;59.10;;;;;;3583471;39;20380;-73
2021/06/13 11:58:18;;;;;;;3.85;2.85;;;32.80;56.60;;;;;;3603443;39;20367;-73
2021/06/13 12:00:44;;;;;;;3.00;2.80;;;32.70;58.60;;;;;;3600874;39;20544;-73
2021/06/13 12:03:12;;;;;;;3.10;2.80;;;33.10;57.10;;;;;;3601164;39;20414;-73
2021/06/13 12:05:39;;;;;;;2.13;2.00;;;33.20;60.10;;;;;;3603799;39;20504;-73
2021/06/13 12:08:05;;;;;;;2.83;2.45;;;33.50;59.00;;;;;;3593893;40;20416;-73
2021/06/13 12:10:36;;;;;;;3.13;2.33;;;33.50;57.40;;;;;;3602414;39;20440;-72
2021/06/13 12:13:06;;;;;;;2.90;2.60;;;33.50;60.20;;;;;;3595640;39;20487;-73
2021/06/13 12:15:32;;;;;;;2.92;2.70;;;33.10;58.20;;;;;;3595266;39;20384;-73
2021/06/13 12:17:58;;;;;;;2.42;2.33;;;32.50;58.20;;;;;;3604835;39;20463;-73
2021/06/13 12:20:26;;;;;;;2.92;2.50;;;32.60;61.60;;;;;;3605229;39;20421;-73
2021/06/13 12:23:00;;;;;;;3.08;2.38;;;32.60;59.00;;;;;;3605589;39;20390;-74
2021/06/13 12:28:11;;;;;;;1.90;1.80;;;32.70;58.90;;;;;;3604265;39;20446;-74
2021/06/13 12:30:39;;;;;;;3.00;2.03;;;33.10;58.10;;;;;;3606501;39;20371;-75
2021/06/13 12:33:09;;;;;;;2.35;2.15;;;33.40;59.10;;;;;;3597430;39;20410;-75
2021/06/13 12:35:37;;;;;;;2.13;1.90;;;33.50;56.70;;;;;;3597688;39;20436;-74
2021/06/13 12:38:05;;;;;;;2.10;2.00;;;33.20;56.60;;;;;;3595598;39;20363;-74
2021/06/13 12:40:33;;;;;;;2.08;1.98;;;33.40;57.30;;;;;;3606215;39;20375;-74
2021/06/13 12:43:00;;;;;;;2.25;2.10;;;;;;;;;;3599519;39;20673;-74
2021/06/13 12:45:26;;;;;;;2.17;1.80;;;34.30;55.50;;;;;;3601965;39;20383;-74
2021/06/13 12:47:56;;;;;;;2.00;1.80;;;34.70;56.40;;;;;;3598649;39;20435;-74
2021/06/13 12:50:24;;;;;;;1.88;1.77;;;34.60;55.80;;;;;;3607501;39;20399;-74
2021/06/13 12:52:53;;;;;;;1.88;1.77;;;34.90;54.60;;;;;;3606611;39;20736;-74
2021/06/13 12:55:20;;;;;;;1.87;1.77;;;34.90;53.10;;;;;;3595445;39;20404;-74
2021/06/13 12:57:47;;;;;;;3.20;2.20;;;35.00;52.50;;;;;;3604671;39;20361;-74
2021/06/13 13:00:14;;;;;;;2.28;2.00;;;34.80;54.60;;;;;;3597967;39;20695;-74
2021/06/13 13:02:40;;;;;;;3.00;2.25;;;34.80;54.40;;;;;;3606720;39;20395;-75
2021/06/13 13:05:14;;;;;;;2.13;1.93;;;34.90;53.90;;;;;;3606231;39;20382;-74
2021/06/13 13:07:42;;;;;;;2.80;1.92;;;34.60;54.70;;;;;;3588281;39;20391;-74
2021/06/13 13:10:12;;;;;;;1.90;1.80;;;34.50;53.80;;;;;;3602642;39;20375;-74
2021/06/13 13:12:40;;;;;;;1.98;1.88;;;34.70;57.80;;;;;;3598414;39;20481;-75
2021/06/13 13:15:14;;;;;;;2.30;2.10;;;35.30;54.90;;;;;;3603661;39;20407;-74